sensor_id;sensor_type;location;lat;lon;timestamp;temperature;humidity
12839;DHT22;6486;51.034;5.262;2023-06-14T00:00:39;23.10;37.40
12839;DHT22;6486;51.034;5.262;2023-06-14T00:03:09;23.00;37.40
12839;DHT22;6486;51.034;5.262;2023-06-14T00:05:36;22.90;37.50
12839;DHT22;6486;51.034;5.262;2023-06-14T00:08:09;22.90;37.70
12839;DHT22;6486;51.034;5.262;2023-06-14T00:10:35;22.80;37.70
12839;DHT22;6486;51.034;5.262;2023-06-14T00:13:04;22.80;37.80
12839;DHT22;6486;51.034;5.262;2023-06-14T00:15:33;22.80;37.90
12839;DHT22;6486;51.034;5.262;2023-06-14T00:17:59;22.80;37.90
12839;DHT22;6486;51.034;5.262;2023-06-14T00:20:29;22.70;37.90
12839;DHT22;6486;51.034;5.262;2023-06-14T00:22:56;22.70;38.00
12839;DHT22;6486;51.034;5.262;2023-06-14T00:25:25;22.70;38.10
12839;DHT22;6486;51.034;5.262;2023-06-14T00:27:51;22.60;38.10
12839;DHT22;6486;51.034;5.262;2023-06-14T00:30:17;22.60;38.20
12839;DHT22;6486;51.034;5.262;2023-06-14T00:32:44;22.60;38.30
12839;DHT22;6486;51.034;5.262;2023-06-14T00:35:09;22.60;38.30
12839;DHT22;6486;51.034;5.262;2023-06-14T00:37:35;22.60;38.40
12839;DHT22;6486;51.034;5.262;2023-06-14T00:40:01;22.50;38.30
12839;DHT22;6486;51.034;5.262;2023-06-14T00:42:28;22.50;38.40
12839;DHT22;6486;51.034;5.262;2023-06-14T00:44:54;22.50;38.50
12839;DHT22;6486;51.034;5.262;2023-06-14T00:47:20;22.40;38.40
12839;DHT22;6486;51.034;5.262;2023-06-14T00:49:55;22.40;38.50
12839;DHT22;6486;51.034;5.262;2023-06-14T00:52:22;22.40;38.60
12839;DHT22;6486;51.034;5.262;2023-06-14T00:54:49;22.30;38.70
12839;DHT22;6486;51.034;5.262;2023-06-14T00:57:15;22.30;38.80
12839;DHT22;6486;51.034;5.262;2023-06-14T00:59:50;22.20;38.80
12839;DHT22;6486;51.034;5.262;2023-06-14T01:02:17;22.20;38.90
12839;DHT22;6486;51.034;5.262;2023-06-14T01:04:48;22.20;39.00
12839;DHT22;6486;51.034;5.262;2023-06-14T01:15:31;22.10;39.00
12839;DHT22;6486;51.034;5.262;2023-06-14T01:17:57;22.00;38.90
12839;DHT22;6486;51.034;5.262;2023-06-14T01:20:30;22.00;39.00
12839;DHT22;6486;51.034;5.262;2023-06-14T01:22:56;21.90;39.10
12839;DHT22;6486;51.034;5.262;2023-06-14T01:25:22;21.90;39.20
12839;DHT22;6486;51.034;5.262;2023-06-14T01:27:49;21.90;39.20
12839;DHT22;6486;51.034;5.262;2023-06-14T01:30:17;21.90;39.30
12839;DHT22;6486;51.034;5.262;2023-06-14T01:32:44;21.90;39.30
12839;DHT22;6486;51.034;5.262;2023-06-14T01:35:10;21.80;39.30
12839;DHT22;6486;51.034;5.262;2023-06-14T01:37:36;21.80;40.10
12839;DHT22;6486;51.034;5.262;2023-06-14T01:40:04;21.80;39.60
12839;DHT22;6486;51.034;5.262;2023-06-14T01:42:35;21.70;39.60
12839;DHT22;6486;51.034;5.262;2023-06-14T01:45:02;21.60;39.70
12839;DHT22;6486;51.034;5.262;2023-06-14T01:47:29;21.60;39.90
12839;DHT22;6486;51.034;5.262;2023-06-14T01:49:55;21.60;40.00
12839;DHT22;6486;51.034;5.262;2023-06-14T01:52:21;21.50;40.00
12839;DHT22;6486;51.034;5.262;2023-06-14T01:54:50;21.50;40.10
12839;DHT22;6486;51.034;5.262;2023-06-14T01:57:15;21.50;40.30
12839;DHT22;6486;51.034;5.262;2023-06-14T01:59:41;21.40;40.30
12839;DHT22;6486;51.034;5.262;2023-06-14T02:02:07;21.40;40.40
12839;DHT22;6486;51.034;5.262;2023-06-14T02:04:33;21.40;40.50
12839;DHT22;6486;51.034;5.262;2023-06-14T02:06:59;21.40;40.50
12839;DHT22;6486;51.034;5.262;2023-06-14T02:09:24;21.40;40.60
12839;DHT22;6486;51.034;5.262;2023-06-14T02:11:50;21.30;40.60
12839;DHT22;6486;51.034;5.262;2023-06-14T02:14:16;21.30;40.60
12839;DHT22;6486;51.034;5.262;2023-06-14T02:16:42;21.30;40.70
12839;DHT22;6486;51.034;5.262;2023-06-14T02:19:15;21.20;40.70
12839;DHT22;6486;51.034;5.262;2023-06-14T02:21:41;21.20;40.80
12839;DHT22;6486;51.034;5.262;2023-06-14T02:24:07;21.20;40.80
12839;DHT22;6486;51.034;5.262;2023-06-14T02:26:33;21.20;40.80
12839;DHT22;6486;51.034;5.262;2023-06-14T02:28:58;21.20;40.90
12839;DHT22;6486;51.034;5.262;2023-06-14T02:31:25;21.10;40.90
12839;DHT22;6486;51.034;5.262;2023-06-14T02:33:51;21.10;41.00
12839;DHT22;6486;51.034;5.262;2023-06-14T02:36:16;21.10;41.00
12839;DHT22;6486;51.034;5.262;2023-06-14T02:38:42;21.00;41.00
12839;DHT22;6486;51.034;5.262;2023-06-14T02:41:08;21.00;41.10
12839;DHT22;6486;51.034;5.262;2023-06-14T02:43:33;21.00;41.10
12839;DHT22;6486;51.034;5.262;2023-06-14T02:45:59;21.00;41.20
12839;DHT22;6486;51.034;5.262;2023-06-14T02:48:25;21.00;41.30
12839;DHT22;6486;51.034;5.262;2023-06-14T02:50:50;20.90;41.20
12839;DHT22;6486;51.034;5.262;2023-06-14T02:53:16;20.90;41.30
12839;DHT22;6486;51.034;5.262;2023-06-14T02:55:42;20.80;41.20
12839;DHT22;6486;51.034;5.262;2023-06-14T02:58:08;20.80;41.30
12839;DHT22;6486;51.034;5.262;2023-06-14T03:00:34;20.80;41.40
12839;DHT22;6486;51.034;5.262;2023-06-14T03:03:01;20.80;41.40
12839;DHT22;6486;51.034;5.262;2023-06-14T03:05:27;20.70;41.30
12839;DHT22;6486;51.034;5.262;2023-06-14T03:07:53;20.70;41.50
12839;DHT22;6486;51.034;5.262;2023-06-14T03:10:19;20.60;41.50
12839;DHT22;6486;51.034;5.262;2023-06-14T03:12:46;20.60;41.60
12839;DHT22;6486;51.034;5.262;2023-06-14T03:15:12;20.60;41.70
12839;DHT22;6486;51.034;5.262;2023-06-14T03:17:42;20.60;41.80
12839;DHT22;6486;51.034;5.262;2023-06-14T03:20:11;20.50;41.70
12839;DHT22;6486;51.034;5.262;2023-06-14T03:22:37;20.50;42.50
12839;DHT22;6486;51.034;5.262;2023-06-14T03:25:03;20.50;41.90
12839;DHT22;6486;51.034;5.262;2023-06-14T03:27:29;20.40;41.90
12839;DHT22;6486;51.034;5.262;2023-06-14T03:29:55;20.40;42.00
12839;DHT22;6486;51.034;5.262;2023-06-14T03:32:21;20.40;42.00
12839;DHT22;6486;51.034;5.262;2023-06-14T03:34:46;20.40;42.10
12839;DHT22;6486;51.034;5.262;2023-06-14T03:37:12;20.30;42.10
12839;DHT22;6486;51.034;5.262;2023-06-14T03:39:38;20.30;42.20
12839;DHT22;6486;51.034;5.262;2023-06-14T03:42:11;20.30;42.30
12839;DHT22;6486;51.034;5.262;2023-06-14T03:47:14;20.20;42.30
12839;DHT22;6486;51.034;5.262;2023-06-14T03:49:40;20.20;42.40
12839;DHT22;6486;51.034;5.262;2023-06-14T03:52:06;20.20;42.40
12839;DHT22;6486;51.034;5.262;2023-06-14T03:54:32;20.20;42.50
12839;DHT22;6486;51.034;5.262;2023-06-14T03:56:58;20.20;42.50
12839;DHT22;6486;51.034;5.262;2023-06-14T03:59:24;20.20;42.50
12839;DHT22;6486;51.034;5.262;2023-06-14T04:01:51;20.20;42.70
12839;DHT22;6486;51.034;5.262;2023-06-14T04:04:16;20.20;42.60
12839;DHT22;6486;51.034;5.262;2023-06-14T04:06:43;20.10;42.70
12839;DHT22;6486;51.034;5.262;2023-06-14T04:09:09;20.10;42.70
12839;DHT22;6486;51.034;5.262;2023-06-14T04:11:35;20.10;42.80
12839;DHT22;6486;51.034;5.262;2023-06-14T04:14:02;20.10;42.90
12839;DHT22;6486;51.034;5.262;2023-06-14T04:16:28;20.10;43.00
12839;DHT22;6486;51.034;5.262;2023-06-14T04:18:55;20.10;43.10
12839;DHT22;6486;51.034;5.262;2023-06-14T04:21:20;20.10;43.20
12839;DHT22;6486;51.034;5.262;2023-06-14T04:23:46;20.10;43.30
12839;DHT22;6486;51.034;5.262;2023-06-14T04:26:12;20.10;43.20
12839;DHT22;6486;51.034;5.262;2023-06-14T04:28:37;20.10;43.30
12839;DHT22;6486;51.034;5.262;2023-06-14T04:31:09;20.10;43.40
12839;DHT22;6486;51.034;5.262;2023-06-14T04:33:35;20.00;43.30
12839;DHT22;6486;51.034;5.262;2023-06-14T04:36:12;20.10;43.50
12839;DHT22;6486;51.034;5.262;2023-06-14T04:38:39;20.00;43.50
12839;DHT22;6486;51.034;5.262;2023-06-14T04:41:04;20.10;43.70
12839;DHT22;6486;51.034;5.262;2023-06-14T04:43:31;20.10;43.80
12839;DHT22;6486;51.034;5.262;2023-06-14T04:46:06;20.10;43.80
12839;DHT22;6486;51.034;5.262;2023-06-14T04:48:37;20.10;43.80
12839;DHT22;6486;51.034;5.262;2023-06-14T04:51:03;20.20;44.10
12839;DHT22;6486;51.034;5.262;2023-06-14T04:53:29;20.20;44.00
12839;DHT22;6486;51.034;5.262;2023-06-14T04:55:55;20.20;44.00
12839;DHT22;6486;51.034;5.262;2023-06-14T04:58:20;20.20;44.00
12839;DHT22;6486;51.034;5.262;2023-06-14T05:00:46;20.30;44.20
12839;DHT22;6486;51.034;5.262;2023-06-14T05:03:13;20.30;44.20
12839;DHT22;6486;51.034;5.262;2023-06-14T05:05:40;20.30;44.30
12839;DHT22;6486;51.034;5.262;2023-06-14T05:08:06;20.30;44.30
12839;DHT22;6486;51.034;5.262;2023-06-14T05:10:32;20.40;44.40
12839;DHT22;6486;51.034;5.262;2023-06-14T05:13:00;20.50;45.10
12839;DHT22;6486;51.034;5.262;2023-06-14T05:15:26;20.50;44.50
12839;DHT22;6486;51.034;5.262;2023-06-14T05:17:52;20.60;44.60
12839;DHT22;6486;51.034;5.262;2023-06-14T05:20:21;20.60;44.50
12839;DHT22;6486;51.034;5.262;2023-06-14T05:22:48;20.70;44.50
12839;DHT22;6486;51.034;5.262;2023-06-14T05:25:17;20.70;44.50
12839;DHT22;6486;51.034;5.262;2023-06-14T05:27:42;20.80;44.60
12839;DHT22;6486;51.034;5.262;2023-06-14T05:30:09;20.90;44.60
12839;DHT22;6486;51.034;5.262;2023-06-14T05:32:34;20.90;44.60
12839;DHT22;6486;51.034;5.262;2023-06-14T05:35:00;21.00;44.70
12839;DHT22;6486;51.034;5.262;2023-06-14T05:37:25;21.10;44.70
12839;DHT22;6486;51.034;5.262;2023-06-14T05:39:51;21.10;45.30
12839;DHT22;6486;51.034;5.262;2023-06-14T05:42:17;21.20;44.60
12839;DHT22;6486;51.034;5.262;2023-06-14T05:44:43;21.20;44.60
12839;DHT22;6486;51.034;5.262;2023-06-14T05:47:08;21.30;44.60
12839;DHT22;6486;51.034;5.262;2023-06-14T05:49:34;21.40;44.60
12839;DHT22;6486;51.034;5.262;2023-06-14T05:51:59;21.50;44.50
12839;DHT22;6486;51.034;5.262;2023-06-14T05:54:25;21.60;45.20
12839;DHT22;6486;51.034;5.262;2023-06-14T05:56:51;21.60;44.30
12839;DHT22;6486;51.034;5.262;2023-06-14T05:59:16;21.70;44.30
12839;DHT22;6486;51.034;5.262;2023-06-14T06:01:42;21.80;44.40
12839;DHT22;6486;51.034;5.262;2023-06-14T06:04:09;21.90;44.20
12839;DHT22;6486;51.034;5.262;2023-06-14T06:06:34;22.00;44.00
12839;DHT22;6486;51.034;5.262;2023-06-14T06:09:01;22.10;43.80
12839;DHT22;6486;51.034;5.262;2023-06-14T06:11:27;22.20;43.70
12839;DHT22;6486;51.034;5.262;2023-06-14T06:13:53;22.30;43.60
12839;DHT22;6486;51.034;5.262;2023-06-14T06:16:18;22.40;43.40
12839;DHT22;6486;51.034;5.262;2023-06-14T06:18:44;22.60;43.30
12839;DHT22;6486;51.034;5.262;2023-06-14T06:21:09;22.70;43.20
12839;DHT22;6486;51.034;5.262;2023-06-14T06:23:35;22.80;43.00
12839;DHT22;6486;51.034;5.262;2023-06-14T06:26:01;22.80;42.70
12839;DHT22;6486;51.034;5.262;2023-06-14T06:28:26;22.90;42.50
12839;DHT22;6486;51.034;5.262;2023-06-14T06:30:52;23.00;42.40
12839;DHT22;6486;51.034;5.262;2023-06-14T06:33:18;23.20;42.40
12839;DHT22;6486;51.034;5.262;2023-06-14T06:35:44;23.20;42.20
12839;DHT22;6486;51.034;5.262;2023-06-14T06:38:10;23.30;42.10
12839;DHT22;6486;51.034;5.262;2023-06-14T06:40:36;23.40;41.90
12839;DHT22;6486;51.034;5.262;2023-06-14T06:43:02;23.50;41.80
12839;DHT22;6486;51.034;5.262;2023-06-14T06:45:28;23.60;41.80
12839;DHT22;6486;51.034;5.262;2023-06-14T06:47:54;23.70;41.60
12839;DHT22;6486;51.034;5.262;2023-06-14T06:50:21;23.80;41.40
12839;DHT22;6486;51.034;5.262;2023-06-14T06:52:48;24.00;41.40
12839;DHT22;6486;51.034;5.262;2023-06-14T06:55:14;24.10;41.10
12839;DHT22;6486;51.034;5.262;2023-06-14T06:57:40;24.20;41.00
12839;DHT22;6486;51.034;5.262;2023-06-14T07:00:06;24.30;40.80
12839;DHT22;6486;51.034;5.262;2023-06-14T07:02:35;24.40;40.60
12839;DHT22;6486;51.034;5.262;2023-06-14T07:05:02;24.50;40.50
12839;DHT22;6486;51.034;5.262;2023-06-14T07:07:27;24.60;40.40
12839;DHT22;6486;51.034;5.262;2023-06-14T07:09:53;24.60;40.20
12839;DHT22;6486;51.034;5.262;2023-06-14T07:12:18;24.80;40.10
12839;DHT22;6486;51.034;5.262;2023-06-14T07:14:44;24.90;39.90
12839;DHT22;6486;51.034;5.262;2023-06-14T07:17:10;25.00;39.70
12839;DHT22;6486;51.034;5.262;2023-06-14T07:19:35;25.10;39.50
12839;DHT22;6486;51.034;5.262;2023-06-14T07:22:01;25.20;39.30
12839;DHT22;6486;51.034;5.262;2023-06-14T07:24:27;25.30;39.10
12839;DHT22;6486;51.034;5.262;2023-06-14T07:26:53;25.40;38.70
12839;DHT22;6486;51.034;5.262;2023-06-14T07:29:20;25.50;38.60
12839;DHT22;6486;51.034;5.262;2023-06-14T07:31:46;25.60;38.40
12839;DHT22;6486;51.034;5.262;2023-06-14T07:34:12;25.70;38.30
12839;DHT22;6486;51.034;5.262;2023-06-14T07:36:37;25.80;38.10
12839;DHT22;6486;51.034;5.262;2023-06-14T07:39:03;25.90;37.90
12839;DHT22;6486;51.034;5.262;2023-06-14T07:41:31;26.00;37.70
12839;DHT22;6486;51.034;5.262;2023-06-14T07:43:57;26.10;37.60
12839;DHT22;6486;51.034;5.262;2023-06-14T07:46:22;26.20;37.40
12839;DHT22;6486;51.034;5.262;2023-06-14T07:48:48;26.40;37.30
12839;DHT22;6486;51.034;5.262;2023-06-14T07:51:14;26.50;37.30
12839;DHT22;6486;51.034;5.262;2023-06-14T07:53:39;26.60;37.60
12839;DHT22;6486;51.034;5.262;2023-06-14T07:56:06;26.80;36.80
12839;DHT22;6486;51.034;5.262;2023-06-14T07:58:31;26.80;36.50
12839;DHT22;6486;51.034;5.262;2023-06-14T08:00:57;27.00;36.40
12839;DHT22;6486;51.034;5.262;2023-06-14T08:03:23;27.10;36.20
12839;DHT22;6486;51.034;5.262;2023-06-14T08:05:49;27.30;36.10
12839;DHT22;6486;51.034;5.262;2023-06-14T08:08:15;27.50;35.90
12839;DHT22;6486;51.034;5.262;2023-06-14T08:10:41;27.50;35.60
12839;DHT22;6486;51.034;5.262;2023-06-14T08:13:06;27.60;35.60
12839;DHT22;6486;51.034;5.262;2023-06-14T08:15:32;27.70;35.40
12839;DHT22;6486;51.034;5.262;2023-06-14T08:17:57;27.80;35.80
12839;DHT22;6486;51.034;5.262;2023-06-14T08:20:25;27.90;35.40
12839;DHT22;6486;51.034;5.262;2023-06-14T08:22:51;28.00;34.50
12839;DHT22;6486;51.034;5.262;2023-06-14T08:25:20;28.00;34.10
12839;DHT22;6486;51.034;5.262;2023-06-14T08:27:46;28.20;34.10
12839;DHT22;6486;51.034;5.262;2023-06-14T08:30:12;28.30;34.00
12839;DHT22;6486;51.034;5.262;2023-06-14T08:32:38;28.40;33.80
12839;DHT22;6486;51.034;5.262;2023-06-14T08:35:04;28.60;33.70
12839;DHT22;6486;51.034;5.262;2023-06-14T08:37:31;28.70;33.50
12839;DHT22;6486;51.034;5.262;2023-06-14T08:39:56;28.80;33.00
12839;DHT22;6486;51.034;5.262;2023-06-14T08:42:24;28.90;32.70
12839;DHT22;6486;51.034;5.262;2023-06-14T08:44:49;29.00;32.50
12839;DHT22;6486;51.034;5.262;2023-06-14T08:47:15;29.10;32.40
12839;DHT22;6486;51.034;5.262;2023-06-14T08:49:45;29.20;32.40
12839;DHT22;6486;51.034;5.262;2023-06-14T08:52:13;29.30;32.20
12839;DHT22;6486;51.034;5.262;2023-06-14T08:54:41;29.50;32.10
12839;DHT22;6486;51.034;5.262;2023-06-14T08:57:13;29.60;32.00
12839;DHT22;6486;51.034;5.262;2023-06-14T08:59:46;29.70;31.70
12839;DHT22;6486;51.034;5.262;2023-06-14T09:02:14;29.80;31.40
12839;DHT22;6486;51.034;5.262;2023-06-14T09:04:43;29.90;30.60
12839;DHT22;6486;51.034;5.262;2023-06-14T09:07:10;29.90;30.00
12839;DHT22;6486;51.034;5.262;2023-06-14T09:09:39;29.90;30.00
12839;DHT22;6486;51.034;5.262;2023-06-14T09:12:07;30.00;29.70
12839;DHT22;6486;51.034;5.262;2023-06-14T09:14:35;30.00;29.50
12839;DHT22;6486;51.034;5.262;2023-06-14T09:17:04;30.10;29.40
12839;DHT22;6486;51.034;5.262;2023-06-14T09:19:30;30.30;29.50
12839;DHT22;6486;51.034;5.262;2023-06-14T09:21:55;30.50;29.40
12839;DHT22;6486;51.034;5.262;2023-06-14T09:24:21;30.60;29.20
12839;DHT22;6486;51.034;5.262;2023-06-14T09:26:51;30.70;28.90
12839;DHT22;6486;51.034;5.262;2023-06-14T09:29:17;30.80;28.70
12839;DHT22;6486;51.034;5.262;2023-06-14T09:31:45;30.90;28.50
12839;DHT22;6486;51.034;5.262;2023-06-14T09:34:11;31.00;28.40
12839;DHT22;6486;51.034;5.262;2023-06-14T09:36:39;31.10;28.20
12839;DHT22;6486;51.034;5.262;2023-06-14T09:39:05;31.30;28.20
12839;DHT22;6486;51.034;5.262;2023-06-14T09:41:33;31.50;28.00
12839;DHT22;6486;51.034;5.262;2023-06-14T09:43:59;31.50;27.60
12839;DHT22;6486;51.034;5.262;2023-06-14T09:46:26;31.60;27.60
12839;DHT22;6486;51.034;5.262;2023-06-14T09:48:52;31.60;27.50
12839;DHT22;6486;51.034;5.262;2023-06-14T09:51:19;31.70;27.50
12839;DHT22;6486;51.034;5.262;2023-06-14T09:53:47;31.70;27.20
12839;DHT22;6486;51.034;5.262;2023-06-14T09:56:37;31.80;27.00
12839;DHT22;6486;51.034;5.262;2023-06-14T09:59:04;31.90;26.60
12839;DHT22;6486;51.034;5.262;2023-06-14T10:01:31;31.90;26.40
12839;DHT22;6486;51.034;5.262;2023-06-14T10:04:06;31.90;26.20
12839;DHT22;6486;51.034;5.262;2023-06-14T10:06:34;32.00;26.20
12839;DHT22;6486;51.034;5.262;2023-06-14T10:09:04;32.10;26.00
12839;DHT22;6486;51.034;5.262;2023-06-14T10:11:31;32.10;26.00
12839;DHT22;6486;51.034;5.262;2023-06-14T10:13:58;32.20;25.80
12839;DHT22;6486;51.034;5.262;2023-06-14T10:16:32;32.30;25.60
12839;DHT22;6486;51.034;5.262;2023-06-14T10:19:19;32.30;25.70
12839;DHT22;6486;51.034;5.262;2023-06-14T10:21:58;32.40;25.60
12839;DHT22;6486;51.034;5.262;2023-06-14T10:24:45;32.50;25.50
12839;DHT22;6486;51.034;5.262;2023-06-14T10:27:14;32.70;25.00
12839;DHT22;6486;51.034;5.262;2023-06-14T10:32:23;32.90;24.80
12839;DHT22;6486;51.034;5.262;2023-06-14T10:35:01;33.00;24.40
12839;DHT22;6486;51.034;5.262;2023-06-14T10:37:29;32.90;24.10
12839;DHT22;6486;51.034;5.262;2023-06-14T10:39:55;33.00;24.10
12839;DHT22;6486;51.034;5.262;2023-06-14T10:42:20;33.00;24.00
12839;DHT22;6486;51.034;5.262;2023-06-14T10:44:57;33.10;24.00
12839;DHT22;6486;51.034;5.262;2023-06-14T10:52:28;33.50;23.90
12839;DHT22;6486;51.034;5.262;2023-06-14T10:57:57;33.70;23.60
12839;DHT22;6486;51.034;5.262;2023-06-14T11:00:25;33.80;23.40
12839;DHT22;6486;51.034;5.262;2023-06-14T11:11:00;33.80;21.80
12839;DHT22;6486;51.034;5.262;2023-06-14T11:13:27;33.80;21.90
12839;DHT22;6486;51.034;5.262;2023-06-14T11:15:52;33.80;22.00
12839;DHT22;6486;51.034;5.262;2023-06-14T11:18:19;33.80;21.90
12839;DHT22;6486;51.034;5.262;2023-06-14T11:20:49;33.80;21.80
12839;DHT22;6486;51.034;5.262;2023-06-14T11:23:15;33.90;21.90
12839;DHT22;6486;51.034;5.262;2023-06-14T11:25:41;34.10;22.00
12839;DHT22;6486;51.034;5.262;2023-06-14T11:28:07;34.20;21.60
12839;DHT22;6486;51.034;5.262;2023-06-14T11:30:32;34.30;21.60
12839;DHT22;6486;51.034;5.262;2023-06-14T11:32:58;34.40;21.50
12839;DHT22;6486;51.034;5.262;2023-06-14T11:35:24;34.40;21.40
12839;DHT22;6486;51.034;5.262;2023-06-14T11:37:56;34.50;21.90
12839;DHT22;6486;51.034;5.262;2023-06-14T11:40:26;34.70;21.30
12839;DHT22;6486;51.034;5.262;2023-06-14T11:43:00;34.90;20.90
12839;DHT22;6486;51.034;5.262;2023-06-14T11:45:26;34.90;20.60
12839;DHT22;6486;51.034;5.262;2023-06-14T11:47:54;34.90;20.30
12839;DHT22;6486;51.034;5.262;2023-06-14T11:50:22;34.90;20.30
12839;DHT22;6486;51.034;5.262;2023-06-14T11:52:58;34.80;20.40
12839;DHT22;6486;51.034;5.262;2023-06-14T11:55:41;34.70;20.10
12839;DHT22;6486;51.034;5.262;2023-06-14T11:58:10;34.60;20.00
12839;DHT22;6486;51.034;5.262;2023-06-14T12:00:36;34.50;20.20
12839;DHT22;6486;51.034;5.262;2023-06-14T12:03:02;34.50;20.30
12839;DHT22;6486;51.034;5.262;2023-06-14T12:05:28;34.60;20.40
12839;DHT22;6486;51.034;5.262;2023-06-14T12:08:02;34.70;20.50
12839;DHT22;6486;51.034;5.262;2023-06-14T12:10:29;34.80;20.40
12839;DHT22;6486;51.034;5.262;2023-06-14T12:12:59;35.00;20.50
12839;DHT22;6486;51.034;5.262;2023-06-14T12:15:27;35.00;20.30
12839;DHT22;6486;51.034;5.262;2023-06-14T12:17:54;35.10;20.30
12839;DHT22;6486;51.034;5.262;2023-06-14T12:20:20;35.10;20.30
12839;DHT22;6486;51.034;5.262;2023-06-14T12:22:54;35.10;20.30
12839;DHT22;6486;51.034;5.262;2023-06-14T12:25:29;35.10;20.30
12839;DHT22;6486;51.034;5.262;2023-06-14T12:27:59;35.00;20.20
12839;DHT22;6486;51.034;5.262;2023-06-14T12:30:25;35.00;20.30
12839;DHT22;6486;51.034;5.262;2023-06-14T12:32:51;35.00;20.50
12839;DHT22;6486;51.034;5.262;2023-06-14T12:35:17;35.00;20.40
12839;DHT22;6486;51.034;5.262;2023-06-14T12:37:44;35.00;20.30
12839;DHT22;6486;51.034;5.262;2023-06-14T12:40:11;35.00;20.40
12839;DHT22;6486;51.034;5.262;2023-06-14T12:42:37;35.00;20.20
12839;DHT22;6486;51.034;5.262;2023-06-14T12:45:03;35.00;20.30
12839;DHT22;6486;51.034;5.262;2023-06-14T12:47:29;34.90;20.20
12839;DHT22;6486;51.034;5.262;2023-06-14T12:49:55;35.00;20.50
12839;DHT22;6486;51.034;5.262;2023-06-14T12:52:20;35.10;20.90
12839;DHT22;6486;51.034;5.262;2023-06-14T12:54:46;35.30;20.30
12839;DHT22;6486;51.034;5.262;2023-06-14T12:57:11;35.50;20.30
12839;DHT22;6486;51.034;5.262;2023-06-14T12:59:38;35.50;20.20
12839;DHT22;6486;51.034;5.262;2023-06-14T13:02:17;35.50;20.60
12839;DHT22;6486;51.034;5.262;2023-06-14T13:04:43;35.50;20.10
12839;DHT22;6486;51.034;5.262;2023-06-14T13:07:09;35.50;20.80
12839;DHT22;6486;51.034;5.262;2023-06-14T13:09:36;35.60;20.30
12839;DHT22;6486;51.034;5.262;2023-06-14T13:12:02;35.60;20.30
12839;DHT22;6486;51.034;5.262;2023-06-14T13:14:28;35.60;20.30
12839;DHT22;6486;51.034;5.262;2023-06-14T13:16:53;35.60;20.40
12839;DHT22;6486;51.034;5.262;2023-06-14T13:19:20;35.70;20.50
12839;DHT22;6486;51.034;5.262;2023-06-14T13:21:46;35.70;20.50
12839;DHT22;6486;51.034;5.262;2023-06-14T13:24:11;35.80;20.60
12839;DHT22;6486;51.034;5.262;2023-06-14T13:26:37;35.80;20.70
12839;DHT22;6486;51.034;5.262;2023-06-14T13:29:03;35.90;20.70
12839;DHT22;6486;51.034;5.262;2023-06-14T13:31:29;35.80;20.50
12839;DHT22;6486;51.034;5.262;2023-06-14T13:33:55;35.80;20.40
12839;DHT22;6486;51.034;5.262;2023-06-14T13:36:20;35.70;20.30
12839;DHT22;6486;51.034;5.262;2023-06-14T13:38:46;35.70;20.50
12839;DHT22;6486;51.034;5.262;2023-06-14T13:41:12;35.70;20.60
12839;DHT22;6486;51.034;5.262;2023-06-14T13:43:37;35.70;20.70
12839;DHT22;6486;51.034;5.262;2023-06-14T13:46:03;35.80;21.30
12839;DHT22;6486;51.034;5.262;2023-06-14T13:48:29;35.70;20.70
12839;DHT22;6486;51.034;5.262;2023-06-14T13:50:55;35.60;21.30
12839;DHT22;6486;51.034;5.262;2023-06-14T13:53:20;35.50;20.70
12839;DHT22;6486;51.034;5.262;2023-06-14T13:55:46;35.50;20.80
12839;DHT22;6486;51.034;5.262;2023-06-14T13:58:12;35.40;20.80
12839;DHT22;6486;51.034;5.262;2023-06-14T14:00:39;35.40;20.80
12839;DHT22;6486;51.034;5.262;2023-06-14T14:03:06;35.40;20.80
12839;DHT22;6486;51.034;5.262;2023-06-14T14:05:32;35.40;20.60
12839;DHT22;6486;51.034;5.262;2023-06-14T14:07:58;35.50;20.50
12839;DHT22;6486;51.034;5.262;2023-06-14T14:10:24;35.40;20.50
12839;DHT22;6486;51.034;5.262;2023-06-14T14:12:51;35.50;20.60
12839;DHT22;6486;51.034;5.262;2023-06-14T14:15:17;35.50;20.60
12839;DHT22;6486;51.034;5.262;2023-06-14T14:17:42;35.60;20.30
12839;DHT22;6486;51.034;5.262;2023-06-14T14:20:09;35.60;20.20
12839;DHT22;6486;51.034;5.262;2023-06-14T14:22:34;35.60;20.30
12839;DHT22;6486;51.034;5.262;2023-06-14T14:25:00;35.60;20.20
12839;DHT22;6486;51.034;5.262;2023-06-14T14:27:26;35.60;20.00
12839;DHT22;6486;51.034;5.262;2023-06-14T14:29:51;35.60;19.90
12839;DHT22;6486;51.034;5.262;2023-06-14T14:32:17;35.60;20.00
12839;DHT22;6486;51.034;5.262;2023-06-14T14:34:43;35.60;20.10
12839;DHT22;6486;51.034;5.262;2023-06-14T14:37:08;35.60;20.10
12839;DHT22;6486;51.034;5.262;2023-06-14T14:39:34;35.70;20.20
12839;DHT22;6486;51.034;5.262;2023-06-14T14:42:00;35.70;20.20
12839;DHT22;6486;51.034;5.262;2023-06-14T14:44:25;35.70;19.90
12839;DHT22;6486;51.034;5.262;2023-06-14T14:46:51;35.60;20.00
12839;DHT22;6486;51.034;5.262;2023-06-14T14:49:16;35.50;19.90
12839;DHT22;6486;51.034;5.262;2023-06-14T14:51:42;35.50;20.00
12839;DHT22;6486;51.034;5.262;2023-06-14T14:54:08;35.50;20.00
12839;DHT22;6486;51.034;5.262;2023-06-14T14:56:33;35.50;20.00
12839;DHT22;6486;51.034;5.262;2023-06-14T14:59:00;35.50;20.10
12839;DHT22;6486;51.034;5.262;2023-06-14T15:01:26;35.60;20.20
12839;DHT22;6486;51.034;5.262;2023-06-14T15:03:52;35.60;20.20
12839;DHT22;6486;51.034;5.262;2023-06-14T15:06:17;35.60;20.20
12839;DHT22;6486;51.034;5.262;2023-06-14T15:08:43;35.50;20.10
12839;DHT22;6486;51.034;5.262;2023-06-14T15:11:09;35.50;20.60
12839;DHT22;6486;51.034;5.262;2023-06-14T15:13:35;35.60;20.30
12839;DHT22;6486;51.034;5.262;2023-06-14T15:16:01;35.60;20.20
12839;DHT22;6486;51.034;5.262;2023-06-14T15:18:26;35.70;20.20
12839;DHT22;6486;51.034;5.262;2023-06-14T15:20:52;35.70;20.20
12839;DHT22;6486;51.034;5.262;2023-06-14T15:23:18;35.70;20.00
12839;DHT22;6486;51.034;5.262;2023-06-14T15:25:46;35.70;19.90
12839;DHT22;6486;51.034;5.262;2023-06-14T15:28:14;35.70;19.80
12839;DHT22;6486;51.034;5.262;2023-06-14T15:30:40;35.70;19.60
12839;DHT22;6486;51.034;5.262;2023-06-14T15:33:06;35.60;19.70
12839;DHT22;6486;51.034;5.262;2023-06-14T15:35:32;35.60;19.90
12839;DHT22;6486;51.034;5.262;2023-06-14T15:37:58;35.60;20.00
12839;DHT22;6486;51.034;5.262;2023-06-14T15:40:23;35.70;19.90
12839;DHT22;6486;51.034;5.262;2023-06-14T15:42:49;35.80;19.90
12839;DHT22;6486;51.034;5.262;2023-06-14T15:45:15;35.80;19.90
12839;DHT22;6486;51.034;5.262;2023-06-14T15:47:41;35.70;19.80
12839;DHT22;6486;51.034;5.262;2023-06-14T15:50:07;35.70;19.90
12839;DHT22;6486;51.034;5.262;2023-06-14T15:52:33;35.70;20.00
12839;DHT22;6486;51.034;5.262;2023-06-14T15:54:59;35.80;19.90
12839;DHT22;6486;51.034;5.262;2023-06-14T15:57:25;35.90;19.70
12839;DHT22;6486;51.034;5.262;2023-06-14T15:59:51;36.00;19.50
12839;DHT22;6486;51.034;5.262;2023-06-14T16:02:17;36.10;19.40
12839;DHT22;6486;51.034;5.262;2023-06-14T16:04:43;36.10;19.80
12839;DHT22;6486;51.034;5.262;2023-06-14T16:07:09;36.20;19.20
12839;DHT22;6486;51.034;5.262;2023-06-14T16:09:34;36.30;19.20
12839;DHT22;6486;51.034;5.262;2023-06-14T16:12:00;36.40;19.20